Decoded Metar for PACV (CORDOVA in AK, USA) (IATA:CDV) | Meteo·Mobile Aviation Weather
aviador You're here:

PACV Decoded Metar

CORDOVA in AK, USA
Report Time2018-12-16 09:53:00
UTC Time2018-12-16 10:25:52
Flight Rules vfr VFR
WindCalm
Visibility9999 m
Phenomena:N/A
Clouds:Scattered 065 Hf
Broken 080 Hf
Overcast 110 Hf
Expected CloudBase > 2,400 ft AGL from Temp-Dew spread
Ceiling8,000 ft
Temp02°C (ISA -13)
Dew Point-4°C (65% RH)
AAT-0.5°C
QNH979 hPa
Density Alt-295 ft
Elevation39 ft
Report Wrong Elevation
Raw Report
PACV 160953Z 00000KT 10SM SCT065 BKN080 OVC110 02/M04 A2890 RMK
AO2 SLP785 T00171039=

Extra information for PACV:More info

Metar Taf Metar & Taf Last 4 Metars F.Rules Stats Wind Profile Meteogram Temp Stats Airport Information Weather charts Add Link Nearby VenuesMetar ALERT Operation Metar Decoded Social comments

AIRNAV info for PACV